Time;durP1;ratioP1;P1;durP2;ratioP2;P2;SDS_P1;SDS_P2;PMS_P1;PMS_P2;Temp;Humidity;BMP_temperature;BMP_pressure;BME280_temperature;BME280_humidity;BME280_pressure;Samples;Min_cycle;Max_cycle;Signal;HPM_P1;HPM_P2
2023/08/30 00:02:08;;;;;;;7.57;5.47;;;;;;;-148.15;100.00;61821.78;4953923;28;20031;-92
2023/08/30 00:04:34;;;;;;;7.40;5.83;;;;;;;-148.15;100.00;61821.78;4954559;28;20023;-91
2023/08/30 00:06:59;;;;;;;9.27;6.03;;;;;;;-148.15;100.00;61821.78;4953406;28;20286;-92
2023/08/30 00:09:25;;;;;;;9.52;6.25;;;;;;;-148.15;100.00;61821.78;4954959;28;20041;-91
2023/08/30 00:11:50;;;;;;;13.40;6.50;;;;;;;-148.15;100.00;61821.78;4953036;28;20667;-93
2023/08/30 00:14:15;;;;;;;9.20;6.50;;;;;;;-148.15;100.00;61821.78;4954804;28;20023;-92
2023/08/30 00:16:41;;;;;;;9.20;6.17;;;;;;;-148.15;100.00;61821.78;4954414;28;20071;-93
2023/08/30 00:19:06;;;;;;;10.23;6.60;;;;;;;-148.15;100.00;61821.78;4969883;29;20015;-92
2023/08/30 00:21:32;;;;;;;10.90;6.47;;;;;;;-148.15;100.00;61821.78;4963291;28;20338;-91
2023/08/30 00:23:57;;;;;;;10.80;6.93;;;;;;;-148.15;100.00;61821.78;4954595;28;20395;-92
2023/08/30 00:26:22;;;;;;;9.77;7.30;;;;;;;-148.15;100.00;61821.78;4976205;28;20055;-92
2023/08/30 00:28:48;;;;;;;9.80;7.47;;;;;;;-148.15;100.00;61821.78;4955797;28;20041;-92
2023/08/30 00:31:13;;;;;;;9.93;7.70;;;;;;;-148.15;100.00;61821.78;4953781;28;20027;-93
2023/08/30 00:33:38;;;;;;;9.80;7.23;;;;;;;-148.15;100.00;61821.78;4954269;28;20419;-91
2023/08/30 00:36:04;;;;;;;10.07;7.40;;;;;;;-148.15;100.00;61821.78;4953619;28;20081;-92
2023/08/30 00:38:32;;;;;;;10.50;7.47;;;;;;;-148.15;100.00;61821.78;4954124;28;20031;-93
2023/08/30 00:40:58;;;;;;;10.32;7.60;;;;;;;-148.15;100.00;61821.78;4952883;28;20110;-92
2023/08/30 00:43:23;;;;;;;15.20;7.97;;;;;;;-148.15;100.00;61821.78;4954636;28;20090;-93
2023/08/30 00:45:49;;;;;;;10.82;8.05;;;;;;;-148.15;100.00;61821.78;4953008;28;20040;-92
2023/08/30 00:48:18;;;;;;;9.03;7.33;;;;;;;-148.15;100.00;61821.78;4954094;28;20023;-92
2023/08/30 00:50:43;;;;;;;9.50;7.28;;;;;;;-148.15;100.00;61821.78;4953628;28;20487;-93
2023/08/30 00:53:10;;;;;;;8.85;6.90;;;;;;;-148.15;100.00;61821.78;4952225;28;20082;-92
2023/08/30 00:55:36;;;;;;;12.10;6.63;;;;;;;-148.15;100.00;61821.78;4953296;28;20235;-92
2023/08/30 00:58:02;;;;;;;9.17;6.50;;;;;;;-148.15;100.00;61821.78;4953275;28;20534;-92
2023/08/30 01:00:30;;;;;;;10.47;6.60;;;;;;;-148.15;100.00;61821.78;4953660;28;20287;-93
2023/08/30 01:02:56;;;;;;;13.75;5.88;;;;;;;-148.15;100.00;61821.78;4951390;29;20518;-93
2023/08/30 01:05:22;;;;;;;9.25;6.53;;;;;;;-148.15;100.00;61821.78;4953535;28;20035;-93
2023/08/30 01:07:48;;;;;;;8.98;5.80;;;;;;;-148.15;100.00;61821.78;4953241;28;20027;-92
2023/08/30 01:10:14;;;;;;;13.20;6.13;;;;;;;-148.15;100.00;61821.78;4953246;28;20388;-92
2023/08/30 01:13:09;;;;;;;12.10;5.77;;;;;;;-148.15;100.00;61821.78;4952818;28;20368;-92
2023/08/30 01:15:38;;;;;;;8.77;5.68;;;;;;;-148.15;100.00;61821.78;4950485;29;20043;-92
2023/08/30 01:18:05;;;;;;;8.50;5.68;;;;;;;-148.15;100.00;61821.78;4953281;28;20387;-92
2023/08/30 01:20:36;;;;;;;9.30;5.93;;;;;;;-148.15;100.00;61821.78;4952433;28;20373;-93
2023/08/30 01:23:06;;;;;;;5.88;5.13;;;;;;;-148.15;100.00;61821.78;4934358;29;20056;-92
2023/08/30 01:25:53;;;;;;;9.45;6.20;;;;;;;-148.15;100.00;61821.78;4933627;29;20377;-92
2023/08/30 01:28:22;;;;;;;9.75;5.68;;;;;;;-148.15;100.00;61821.78;4934220;29;20111;-92
2023/08/30 01:30:48;;;;;;;9.97;5.40;;;;;;;-148.15;100.00;61821.78;4937938;29;20050;-92
2023/08/30 01:33:15;;;;;;;6.30;5.07;;;;;;;-148.15;100.00;61821.78;4953250;28;20354;-91
2023/08/30 01:35:41;;;;;;;9.10;6.03;;;;;;;-148.15;100.00;61821.78;4952113;28;20047;-92
2023/08/30 01:38:08;;;;;;;7.82;5.38;;;;;;;-148.15;100.00;61821.78;4953271;28;20039;-92
2023/08/30 01:40:41;;;;;;;7.90;5.07;;;;;;;-148.15;100.00;61821.78;4973219;28;20043;-92
2023/08/30 01:43:10;;;;;;;10.57;5.00;;;;;;;-148.15;100.00;61821.78;4955887;28;20695;-93
2023/08/30 01:45:40;;;;;;;7.50;5.10;;;;;;;-148.15;100.00;61821.78;4959253;28;20037;-91
2023/08/30 01:48:08;;;;;;;7.03;4.88;;;;;;;-148.15;100.00;61821.78;4966325;28;20050;-92
2023/08/30 01:50:34;;;;;;;9.77;4.90;;;;;;;-148.15;100.00;61821.78;4948095;29;20027;-92
2023/08/30 01:53:00;;;;;;;9.67;5.63;;;;;;;-148.15;100.00;61821.78;4952674;28;20308;-92
2023/08/30 01:55:28;;;;;;;7.85;4.97;;;;;;;-148.15;100.00;61821.78;4951902;28;20232;-92
2023/08/30 01:57:53;;;;;;;7.60;5.23;;;;;;;-148.15;100.00;61821.78;4951583;28;20031;-92
2023/08/30 02:00:19;;;;;;;7.68;5.03;;;;;;;-148.15;100.00;61821.78;4952045;28;20046;-92
2023/08/30 02:02:44;;;;;;;6.73;5.00;;;;;;;-148.15;100.00;61821.78;4952324;28;20027;-93
2023/08/30 02:05:09;;;;;;;9.47;6.00;;;;;;;-148.15;100.00;61821.78;4952462;28;20071;-92
2023/08/30 02:08:19;;;;;;;9.50;4.80;;;;;;;-148.15;100.00;61821.78;4950779;28;20046;-92
2023/08/30 02:10:55;;;;;;;8.85;5.80;;;;;;;-148.15;100.00;61821.78;4939703;28;20171;-91
2023/08/30 02:13:26;;;;;;;8.68;5.60;;;;;;;-148.15;100.00;61821.78;4952669;28;20031;-92
2023/08/30 02:15:54;;;;;;;10.90;5.40;;;;;;;-148.15;100.00;61821.78;4949516;29;20026;-91
2023/08/30 02:18:20;;;;;;;9.55;5.28;;;;;;;-148.15;100.00;61821.78;4951263;28;20072;-92
2023/08/30 02:20:46;;;;;;;7.67;5.40;;;;;;;-148.15;100.00;61821.78;4952708;28;20035;-91
2023/08/30 02:23:11;;;;;;;8.23;5.63;;;;;;;-148.15;100.00;61821.78;4952942;28;20055;-92
2023/08/30 02:25:36;;;;;;;6.77;5.40;;;;;;;-148.15;100.00;61821.78;4952051;28;20027;-92
2023/08/30 02:28:02;;;;;;;10.68;6.03;;;;;;;-148.15;100.00;61821.78;4951665;28;20043;-91
2023/08/30 02:30:27;;;;;;;7.20;5.00;;;;;;;-148.15;100.00;61821.78;4952070;28;20075;-91
2023/08/30 02:32:52;;;;;;;8.27;5.53;;;;;;;-148.15;100.00;61821.78;4951932;28;20085;-92
2023/08/30 02:35:18;;;;;;;9.53;5.70;;;;;;;-148.15;100.00;61821.78;4952626;28;20031;-92
2023/08/30 02:37:43;;;;;;;8.93;5.65;;;;;;;-148.15;100.00;61821.78;4950437;28;20031;-92
2023/08/30 02:40:09;;;;;;;7.63;5.67;;;;;;;-148.15;100.00;61821.78;4952448;28;20042;-92
2023/08/30 02:42:35;;;;;;;8.50;5.80;;;;;;;-148.15;100.00;61821.78;4950839;28;20165;-92
2023/08/30 02:45:00;;;;;;;9.13;5.80;;;;;;;-148.15;100.00;61821.78;4951377;29;20035;-92
2023/08/30 02:47:25;;;;;;;15.07;6.13;;;;;;;-148.15;100.00;61821.78;4950658;28;20042;-93
2023/08/30 02:49:51;;;;;;;9.93;5.77;;;;;;;-148.15;100.00;61821.78;4952207;28;20046;-92
2023/08/30 02:52:17;;;;;;;11.17;6.20;;;;;;;-148.15;100.00;61821.78;4951988;28;20390;-92
2023/08/30 02:54:42;;;;;;;11.93;6.47;;;;;;;-148.15;100.00;61821.78;4952101;28;20019;-93
2023/08/30 02:57:08;;;;;;;8.13;6.00;;;;;;;-148.15;100.00;61821.78;4954876;28;20086;-93
2023/08/30 02:59:33;;;;;;;9.57;6.33;;;;;;;-148.15;100.00;61821.78;4955705;28;20294;-92
2023/08/30 03:01:58;;;;;;;15.20;7.10;;;;;;;-148.15;100.00;61821.78;4976266;28;20092;-92
2023/08/30 03:04:24;;;;;;;8.60;6.43;;;;;;;-148.15;100.00;61821.78;4958114;28;20043;-92
2023/08/30 03:06:49;;;;;;;10.10;6.77;;;;;;;-148.15;100.00;61821.78;4953948;29;20035;-92
2023/08/30 03:09:14;;;;;;;11.55;6.93;;;;;;;-148.15;100.00;61821.78;4975512;29;20623;-92
2023/08/30 03:11:40;;;;;;;10.23;7.27;;;;;;;-148.15;100.00;61821.78;4955704;28;20027;-92
2023/08/30 03:14:05;;;;;;;12.03;7.20;;;;;;;-148.15;100.00;61821.78;4955867;28;20038;-91
2023/08/30 03:16:30;;;;;;;11.27;7.50;;;;;;;-148.15;100.00;61821.78;4953749;28;20030;-92
2023/08/30 03:18:56;;;;;;;10.03;7.30;;;;;;;-148.15;100.00;61821.78;4955642;28;20041;-92
2023/08/30 03:21:21;;;;;;;11.17;7.03;;;;;;;-148.15;100.00;61821.78;4955498;28;20103;-92
2023/08/30 03:23:46;;;;;;;12.48;8.05;;;;;;;-148.15;100.00;61821.78;4954280;29;20391;-92
2023/08/30 03:26:14;;;;;;;11.43;7.03;;;;;;;-148.15;100.00;61821.78;4953574;28;20395;-92
2023/08/30 03:28:40;;;;;;;11.18;7.43;;;;;;;-148.15;100.00;61821.78;4954045;29;20061;-91
2023/08/30 03:31:19;;;;;;;12.32;7.30;;;;;;;-148.15;100.00;61821.78;4955192;28;20126;-91
2023/08/30 03:33:45;;;;;;;12.27;7.20;;;;;;;-148.15;100.00;61821.78;4954348;28;20039;-92
2023/08/30 03:36:11;;;;;;;9.90;7.30;;;;;;;-148.15;100.00;61821.78;4954406;28;20345;-93
2023/08/30 03:38:37;;;;;;;15.75;7.13;;;;;;;-148.15;100.00;61821.78;4954369;28;20043;-92
2023/08/30 03:41:03;;;;;;;11.10;7.80;;;;;;;-148.15;100.00;61821.78;4953760;29;20160;-92
2023/08/30 03:43:29;;;;;;;11.30;7.10;;;;;;;-148.15;100.00;61821.78;4954445;28;20064;-92
2023/08/30 03:45:54;;;;;;;11.57;7.60;;;;;;;-148.15;100.00;61821.78;4953352;28;20047;-91
2023/08/30 03:48:20;;;;;;;10.20;6.93;;;;;;;-148.15;100.00;61821.78;4955342;28;20027;-92
2023/08/30 03:50:45;;;;;;;13.50;7.60;;;;;;;-148.15;100.00;61821.78;4954532;28;20046;-92
2023/08/30 03:53:10;;;;;;;10.13;6.77;;;;;;;-148.15;100.00;61821.78;4955203;28;20210;-92
2023/08/30 03:55:35;;;;;;;16.40;8.10;;;;;;;-148.15;100.00;61821.78;4953897;28;20035;-92
2023/08/30 03:58:01;;;;;;;10.40;7.67;;;;;;;-148.15;100.00;61821.78;4954062;29;20431;-92
2023/08/30 04:00:26;;;;;;;14.02;8.00;;;;;;;-148.15;100.00;61821.78;4954624;28;20481;-92
2023/08/30 04:02:52;;;;;;;14.47;8.40;;;;;;;-148.15;100.00;61821.78;4952932;28;20090;-92
2023/08/30 04:05:17;;;;;;;16.20;8.90;;;;;;;-148.15;100.00;61821.78;4954402;28;20135;-92
2023/08/30 04:07:42;;;;;;;14.10;7.97;;;;;;;-148.15;100.00;61821.78;4952858;28;20039;-93
2023/08/30 04:10:08;;;;;;;13.33;8.33;;;;;;;-148.15;100.00;61821.78;4951389;29;20182;-92
2023/08/30 04:12:35;;;;;;;13.95;9.48;;;;;;;-148.15;100.00;61821.78;4954092;28;20023;-92
2023/08/30 04:15:02;;;;;;;13.40;9.68;;;;;;;-148.15;100.00;61821.78;4954248;28;20027;-92
2023/08/30 04:17:27;;;;;;;13.20;9.30;;;;;;;-148.15;100.00;61821.78;4953479;28;20114;-91
2023/08/30 04:19:53;;;;;;;11.70;8.93;;;;;;;-148.15;100.00;61821.78;4962273;28;20111;-91
2023/08/30 04:22:19;;;;;;;14.52;9.35;;;;;;;-148.15;100.00;61821.78;4974701;28;20011;-92
2023/08/30 04:24:45;;;;;;;12.73;8.97;;;;;;;-148.15;100.00;61821.78;4968557;29;20027;-92
2023/08/30 04:27:11;;;;;;;11.43;8.05;;;;;;;-148.15;100.00;61821.78;4954625;28;20081;-92
2023/08/30 04:29:36;;;;;;;13.93;8.65;;;;;;;-148.15;100.00;61821.78;4971171;28;20067;-92
2023/08/30 04:32:01;;;;;;;15.03;8.80;;;;;;;-148.15;100.00;61821.78;4961426;29;20036;-92
2023/08/30 04:34:27;;;;;;;13.67;9.47;;;;;;;-148.15;100.00;61821.78;4957476;28;20035;-92
2023/08/30 04:36:52;;;;;;;13.33;9.90;;;;;;;-148.15;100.00;61821.78;4954125;28;20031;-92
2023/08/30 04:39:17;;;;;;;15.80;10.40;;;;;;;-148.15;100.00;61821.78;4952791;28;20042;-92
2023/08/30 04:41:43;;;;;;;14.30;10.23;;;;;;;-148.15;100.00;61821.78;4954314;29;20071;-92
2023/08/30 04:44:08;;;;;;;16.02;10.55;;;;;;;-148.15;100.00;61821.78;4954342;29;20121;-92
2023/08/30 04:46:34;;;;;;;15.97;9.50;;;;;;;-148.15;100.00;61821.78;4954004;29;20487;-92
2023/08/30 04:48:59;;;;;;;13.27;9.50;;;;;;;-148.15;100.00;61821.78;4955208;28;20039;-92
2023/08/30 04:51:24;;;;;;;18.03;9.60;;;;;;;-148.15;100.00;61821.78;4953813;28;20023;-93
2023/08/30 04:53:50;;;;;;;15.27;11.33;;;;;;;-148.15;100.00;61821.78;4954399;28;20776;-91
2023/08/30 04:56:17;;;;;;;17.27;11.13;;;;;;;-148.15;100.00;61821.78;4955311;28;21008;-92
2023/08/30 04:58:43;;;;;;;17.38;10.82;;;;;;;-148.15;100.00;61821.78;4955496;29;20027;-92
2023/08/30 05:01:09;;;;;;;16.27;11.70;;;;;;;-148.15;100.00;61821.78;4956963;28;20038;-92
2023/08/30 05:03:34;;;;;;;17.35;11.50;;;;;;;-148.15;100.00;61821.78;4953324;28;20427;-92
2023/08/30 05:05:59;;;;;;;19.13;11.07;;;;;;;-148.15;100.00;61821.78;4952593;28;20031;-91
2023/08/30 05:08:25;;;;;;;16.87;10.63;;;;;;;-148.15;100.00;61821.78;4952122;29;20038;-92
2023/08/30 05:10:53;;;;;;;16.20;11.20;;;;;;;-148.15;100.00;61821.78;4953473;28;20383;-93
2023/08/30 05:13:18;;;;;;;20.13;10.95;;;;;;;-148.15;100.00;61821.78;4953254;28;20031;-92
2023/08/30 05:15:43;;;;;;;20.07;11.77;;;;;;;-148.15;100.00;61821.78;4953183;28;20069;-92
2023/08/30 05:18:09;;;;;;;18.33;12.03;;;;;;;-148.15;100.00;61821.78;4952001;28;20066;-92
2023/08/30 05:20:34;;;;;;;17.37;12.17;;;;;;;-148.15;100.00;61821.78;4954367;28;20279;-92
2023/08/30 05:22:59;;;;;;;18.23;11.63;;;;;;;-148.15;100.00;61821.78;4955582;28;20410;-92
2023/08/30 05:25:26;;;;;;;18.37;11.00;;;;;;;-148.15;100.00;61821.78;4953809;28;20031;-92
2023/08/30 05:27:51;;;;;;;21.08;12.60;;;;;;;-148.15;100.00;61821.78;4952573;28;20531;-92
2023/08/30 05:30:17;;;;;;;15.37;11.40;;;;;;;-148.15;100.00;61821.78;4954927;28;20055;-92
2023/08/30 05:32:42;;;;;;;15.63;11.10;;;;;;;-148.15;100.00;61821.78;4952005;28;20035;-93
2023/08/30 05:35:07;;;;;;;18.73;10.97;;;;;;;-148.15;100.00;61821.78;4956324;29;20087;-95
2023/08/30 05:37:33;;;;;;;21.27;11.82;;;;;;;-148.15;100.00;61821.78;4950981;29;20483;-96
2023/08/30 05:39:58;;;;;;;15.20;10.73;;;;;;;-148.15;100.00;61821.78;4949856;28;20114;-95
2023/08/30 05:42:24;;;;;;;16.93;10.50;;;;;;;-148.15;100.00;61821.78;5038906;23;20059;-95
2023/08/30 05:44:49;;;;;;;16.70;10.30;;;;;;;-148.15;100.00;61821.78;4981430;28;20045;-86
2023/08/30 05:47:16;;;;;;;17.67;9.73;;;;;;;-148.15;100.00;61821.78;4969840;28;20084;-88
2023/08/30 05:49:41;;;;;;;13.83;9.97;;;;;;;-148.15;100.00;61821.78;4972538;28;20058;-90
2023/08/30 05:52:07;;;;;;;12.83;9.20;;;;;;;-148.15;100.00;61821.78;4969434;28;20345;-87
2023/08/30 05:54:33;;;;;;;13.63;9.47;;;;;;;-148.15;100.00;61821.78;4971864;28;20023;-89
2023/08/30 05:56:59;;;;;;;15.05;10.15;;;;;;;-148.15;100.00;61821.78;4970626;28;20054;-89
2023/08/30 05:59:24;;;;;;;14.27;9.45;;;;;;;-148.15;100.00;61821.78;4971447;28;20399;-89
2023/08/30 06:01:49;;;;;;;15.77;9.60;;;;;;;-148.15;100.00;61821.78;4971643;28;20125;-85
2023/08/30 06:04:15;;;;;;;15.90;9.77;;;;;;;-148.15;100.00;61821.78;4971879;28;20459;-83
2023/08/30 06:06:40;;;;;;;13.90;9.03;;;;;;;-148.15;100.00;61821.78;4969111;28;20178;-85
2023/08/30 06:09:05;;;;;;;11.30;9.03;;;;;;;-148.15;100.00;61821.78;4968230;28;20031;-86
2023/08/30 06:11:32;;;;;;;14.45;8.48;;;;;;;-148.15;100.00;61821.78;4971476;28;20027;-87
2023/08/30 06:13:59;;;;;;;11.57;8.50;;;;;;;-148.15;100.00;61821.78;4972122;28;20494;-85
2023/08/30 06:16:25;;;;;;;11.75;8.93;;;;;;;-148.15;100.00;61821.78;4968646;28;20058;-84
2023/08/30 06:18:50;;;;;;;12.60;8.50;;;;;;;-148.15;100.00;61821.78;4970907;28;20121;-84
2023/08/30 06:21:15;;;;;;;13.37;8.50;;;;;;;-148.15;100.00;61821.78;4970412;28;20384;-85
2023/08/30 06:23:40;;;;;;;13.87;8.43;;;;;;;-148.15;100.00;61821.78;4970879;28;20030;-88
2023/08/30 06:26:06;;;;;;;12.00;7.97;;;;;;;-148.15;100.00;61821.78;4969863;28;20459;-86
2023/08/30 06:28:31;;;;;;;14.35;7.85;;;;;;;-148.15;100.00;61821.78;4969240;28;20038;-87
2023/08/30 06:30:57;;;;;;;11.70;7.57;;;;;;;-148.15;100.00;61821.78;4971063;28;20545;-84
2023/08/30 06:33:23;;;;;;;12.07;7.33;;;;;;;-148.15;100.00;61821.78;4971471;28;20074;-85
2023/08/30 06:35:50;;;;;;;10.52;7.88;;;;;;;-148.15;100.00;61821.78;4969491;28;20050;-85
2023/08/30 06:38:15;;;;;;;14.23;7.90;;;;;;;-148.15;100.00;61821.78;4971041;28;20646;-85
2023/08/30 06:40:45;;;;;;;9.13;7.87;;;;;;;-148.15;100.00;61821.78;4970863;28;20286;-84
2023/08/30 06:43:11;;;;;;;16.52;7.90;;;;;;;-148.15;100.00;61821.78;4970120;28;20042;-84
2023/08/30 06:45:39;;;;;;;12.57;7.90;;;;;;;-148.15;100.00;61821.78;4969091;28;20038;-85
2023/08/30 06:48:06;;;;;;;13.35;7.75;;;;;;;-148.15;100.00;61821.78;4970047;28;20038;-84
2023/08/30 06:50:33;;;;;;;11.13;7.70;;;;;;;-148.15;100.00;61821.78;4970069;28;20031;-84
2023/08/30 06:52:58;;;;;;;14.95;8.68;;;;;;;-148.15;100.00;61821.78;4970860;28;20038;-85
2023/08/30 06:55:23;;;;;;;14.87;9.83;;;;;;;-148.15;100.00;61821.78;4969253;28;20023;-85
2023/08/30 06:57:51;;;;;;;16.33;9.80;;;;;;;-148.15;100.00;61821.78;4970314;28;20379;-86
2023/08/30 07:00:17;;;;;;;13.07;9.48;;;;;;;-148.15;100.00;61821.78;4967857;28;20035;-87
2023/08/30 07:02:45;;;;;;;18.60;11.15;;;;;;;-148.15;100.00;61821.78;4970911;28;20074;-88
2023/08/30 07:05:13;;;;;;;17.77;11.23;;;;;;;-148.15;100.00;61821.78;4976986;28;20030;-92
2023/08/30 07:07:39;;;;;;;20.30;11.37;;;;;;;-148.15;100.00;61821.78;4975017;28;20031;-89
2023/08/30 07:10:05;;;;;;;21.60;10.77;;;;;;;-148.15;100.00;61821.78;4971283;28;20290;-91
2023/08/30 07:12:30;;;;;;;16.33;11.45;;;;;;;-148.15;100.00;61821.78;4979381;28;20082;-92
2023/08/30 07:14:55;;;;;;;21.43;12.17;;;;;;;-148.15;100.00;61821.78;4971580;28;20026;-89
2023/08/30 07:17:21;;;;;;;22.30;13.43;;;;;;;-148.15;100.00;61821.78;4971062;28;20027;-92
2023/08/30 07:19:47;;;;;;;28.83;13.25;;;;;;;-148.15;100.00;61821.78;4969038;28;20093;-93
2023/08/30 07:22:12;;;;;;;27.23;14.15;;;;;;;-148.15;100.00;61821.78;4970509;28;20114;-91
2023/08/30 07:24:38;;;;;;;29.50;13.60;;;;;;;-148.15;100.00;61821.78;4970684;28;20031;-92
2023/08/30 07:27:03;;;;;;;26.27;14.77;;;;;;;-148.15;100.00;61821.78;4971019;28;20026;-93
2023/08/30 07:29:29;;;;;;;21.63;12.52;;;;;;;-148.15;100.00;61821.78;4970371;28;20035;-92
2023/08/30 07:31:54;;;;;;;24.43;13.63;;;;;;;-148.15;100.00;61821.78;4969879;28;20579;-93
2023/08/30 07:34:20;;;;;;;19.10;12.47;;;;;;;-148.15;100.00;61821.78;4970404;28;20019;-92
2023/08/30 07:36:45;;;;;;;22.92;13.27;;;;;;;-148.15;100.00;61821.78;4970035;28;20035;-91
2023/08/30 07:39:11;;;;;;;25.43;12.10;;;;;;;-148.15;100.00;61821.78;4968903;28;20054;-89
2023/08/30 07:41:36;;;;;;;25.00;12.37;;;;;;;-148.15;100.00;61821.78;4970619;28;20042;-89
2023/08/30 07:44:04;;;;;;;18.90;11.60;;;;;;;-148.15;100.00;61821.78;4973226;28;20081;-89
2023/08/30 07:46:29;;;;;;;26.05;13.23;;;;;;;-148.15;100.00;61821.78;4971929;28;20034;-88
2023/08/30 07:48:55;;;;;;;23.58;12.32;;;;;;;-148.15;100.00;61821.78;4972988;28;20019;-89
2023/08/30 07:51:21;;;;;;;21.07;12.30;;;;;;;-148.15;100.00;61821.78;4974351;28;20030;-92
2023/08/30 07:53:46;;;;;;;18.33;11.48;;;;;;;-148.15;100.00;61821.78;4974009;28;20137;-89
2023/08/30 07:56:11;;;;;;;17.07;10.50;;;;;;;-148.15;100.00;61821.78;4972689;28;20045;-92
2023/08/30 07:58:37;;;;;;;14.43;9.73;;;;;;;-148.15;100.00;61821.78;4973831;28;20487;-91
2023/08/30 08:01:03;;;;;;;19.07;11.23;;;;;;;-148.15;100.00;61821.78;4971235;28;20118;-92
2023/08/30 08:03:28;;;;;;;19.23;11.32;;;;;;;-148.15;100.00;61821.78;4972047;28;20097;-94
2023/08/30 08:05:54;;;;;;;18.93;9.43;;;;;;;-148.15;100.00;61821.78;4973145;28;20081;-93
2023/08/30 08:08:19;;;;;;;15.07;9.38;;;;;;;-148.15;100.00;61821.78;4973974;28;20486;-92
2023/08/30 08:10:45;;;;;;;13.00;8.87;;;;;;;-148.15;100.00;61821.78;4973825;28;20037;-93
2023/08/30 08:13:10;;;;;;;16.47;8.30;;;;;;;-148.15;100.00;61821.78;4972216;28;20038;-92
2023/08/30 08:15:35;;;;;;;13.65;8.15;;;;;;;-148.15;100.00;61821.78;4971816;28;20069;-93
2023/08/30 08:18:02;;;;;;;12.53;7.97;;;;;;;-148.15;100.00;61821.78;4971341;28;20119;-93
2023/08/30 08:20:30;;;;;;;13.55;7.95;;;;;;;-148.15;100.00;61821.78;4955264;28;20030;-93
2023/08/30 08:22:55;;;;;;;12.10;8.30;;;;;;;-148.15;100.00;61821.78;4970620;28;20019;-94
2023/08/30 08:25:23;;;;;;;16.77;8.50;;;;;;;-148.15;100.00;61821.78;4980358;28;20034;-95
2023/08/30 08:27:49;;;;;;;12.30;7.90;;;;;;;-148.15;100.00;61821.78;4975758;28;20052;-91
2023/08/30 08:30:14;;;;;;;12.10;7.60;;;;;;;-148.15;100.00;61821.78;4974334;28;20034;-93
2023/08/30 08:32:39;;;;;;;10.85;7.55;;;;;;;-148.15;100.00;61821.78;4974922;28;20035;-92
2023/08/30 08:35:05;;;;;;;11.60;8.27;;;;;;;-148.15;100.00;61821.78;4977303;28;20041;-92
2023/08/30 08:37:32;;;;;;;9.75;6.65;;;;;;;-148.15;100.00;61821.78;4969179;28;20027;-91
2023/08/30 08:39:57;;;;;;;12.63;6.87;;;;;;;-148.15;100.00;61821.78;4968648;28;20027;-92
2023/08/30 08:42:23;;;;;;;10.27;7.07;;;;;;;-148.15;100.00;61821.78;4971113;28;20416;-93
2023/08/30 08:44:51;;;;;;;11.40;6.93;;;;;;;-148.15;100.00;61821.78;4972072;28;20103;-91
2023/08/30 08:47:18;;;;;;;12.70;7.20;;;;;;;-148.15;100.00;61821.78;4971059;28;20534;-90
2023/08/30 08:49:44;;;;;;;8.98;6.85;;;;;;;-148.15;100.00;61821.78;4971551;28;20050;-92
2023/08/30 08:52:09;;;;;;;12.70;7.13;;;;;;;-148.15;100.00;61821.78;4971721;28;20062;-90
2023/08/30 08:54:38;;;;;;;9.23;7.03;;;;;;;-148.15;100.00;61821.78;4970526;28;20089;-91
2023/08/30 08:57:05;;;;;;;10.82;6.60;;;;;;;-148.15;100.00;61821.78;4971717;28;20030;-89
2023/08/30 08:59:31;;;;;;;10.27;6.30;;;;;;;-148.15;100.00;61821.78;4971294;28;20039;-93
2023/08/30 09:01:57;;;;;;;9.60;6.37;;;;;;;-148.15;100.00;61821.78;4971375;28;20035;-91
2023/08/30 09:04:23;;;;;;;10.02;5.88;;;;;;;-148.15;100.00;61821.78;4972197;28;20023;-91
2023/08/30 09:06:49;;;;;;;7.70;5.93;;;;;;;-148.15;100.00;61821.78;4970613;28;20419;-90
2023/08/30 09:09:15;;;;;;;8.60;5.70;;;;;;;-148.15;100.00;61821.78;4968758;28;20102;-89
2023/08/30 09:11:40;;;;;;;10.48;6.78;;;;;;;-148.15;100.00;61821.78;4970983;28;20042;-89
2023/08/30 09:14:06;;;;;;;10.77;6.23;;;;;;;-148.15;100.00;61821.78;4970104;28;20109;-88
2023/08/30 09:16:31;;;;;;;9.38;6.50;;;;;;;-148.15;100.00;61821.78;4970776;28;20037;-90
2023/08/30 09:19:00;;;;;;;13.73;7.27;;;;;;;-148.15;100.00;61821.78;4971326;28;20058;-89
2023/08/30 09:21:26;;;;;;;15.20;7.68;;;;;;;-148.15;100.00;61821.78;4971212;28;20478;-89
2023/08/30 09:23:58;;;;;;;8.73;6.88;;;;;;;-148.15;100.00;61821.78;4969553;28;20042;-90
2023/08/30 09:26:24;;;;;;;12.40;7.50;;;;;;;-148.15;100.00;61821.78;4971072;28;20027;-89
2023/08/30 09:28:50;;;;;;;9.10;6.55;;;;;;;-148.15;100.00;61821.78;4970142;28;20050;-90
2023/08/30 09:31:19;;;;;;;7.63;5.70;;;;;;;-148.15;100.00;61821.78;4971225;28;20431;-89
2023/08/30 09:33:45;;;;;;;6.33;5.20;;;;;;;-148.15;100.00;61821.78;4969006;28;20293;-89
2023/08/30 09:36:11;;;;;;;8.10;5.38;;;;;;;-148.15;100.00;61821.78;4969848;28;20030;-89
2023/08/30 09:38:36;;;;;;;5.38;4.88;;;;;;;-148.15;100.00;61821.78;4969277;28;20027;-89
2023/08/30 09:41:06;;;;;;;8.13;5.40;;;;;;;-148.15;100.00;61821.78;4969887;28;20364;-90
2023/08/30 09:43:35;;;;;;;6.40;5.22;;;;;;;-148.15;100.00;61821.78;4969280;28;20061;-89
2023/08/30 09:46:05;;;;;;;6.60;4.97;;;;;;;-148.15;100.00;61821.78;4969031;28;20054;-89
2023/08/30 09:48:32;;;;;;;6.07;4.85;;;;;;;-148.15;100.00;61821.78;4975842;28;20181;-89
2023/08/30 09:50:59;;;;;;;6.53;5.15;;;;;;;-148.15;100.00;61821.78;4974116;28;20034;-90
2023/08/30 09:53:28;;;;;;;5.93;4.70;;;;;;;-148.15;100.00;61821.78;4969701;28;20035;-85
2023/08/30 09:55:54;;;;;;;5.82;5.13;;;;;;;-148.15;100.00;61821.78;4970236;28;20394;-85
2023/08/30 09:58:21;;;;;;;9.53;5.43;;;;;;;-148.15;100.00;61821.78;4971171;28;20027;-86
2023/08/30 10:00:47;;;;;;;6.53;5.68;;;;;;;-148.15;100.00;61821.78;4970288;28;20026;-84
2023/08/30 10:03:14;;;;;;;9.25;5.95;;;;;;;-148.15;100.00;61821.78;4968748;28;20130;-84
2023/08/30 10:05:42;;;;;;;6.32;5.70;;;;;;;-148.15;100.00;61821.78;4969028;28;20035;-86
2023/08/30 10:08:09;;;;;;;6.28;5.53;;;;;;;-148.15;100.00;61821.78;4970443;28;20451;-86
2023/08/30 10:10:35;;;;;;;6.38;5.78;;;;;;;-148.15;100.00;61821.78;4969677;28;20027;-84
2023/08/30 10:13:01;;;;;;;6.88;6.07;;;;;;;-148.15;100.00;61821.78;4968898;28;20367;-84
2023/08/30 10:15:30;;;;;;;6.90;5.67;;;;;;;-148.15;100.00;61821.78;4970162;28;20031;-84
2023/08/30 10:17:58;;;;;;;7.17;6.30;;;;;;;-148.15;100.00;61821.78;4970218;28;20286;-84
2023/08/30 10:20:23;;;;;;;6.70;5.05;;;;;;;-148.15;100.00;61821.78;4967638;28;20042;-84
2023/08/30 10:22:51;;;;;;;6.10;5.50;;;;;;;-148.15;100.00;61821.78;4969315;28;20505;-84
2023/08/30 10:25:24;;;;;;;8.10;6.30;;;;;;;-148.15;100.00;61821.78;4970050;28;20030;-84
2023/08/30 10:27:50;;;;;;;6.88;6.18;;;;;;;-148.15;100.00;61821.78;4967371;28;20443;-85
2023/08/30 10:30:18;;;;;;;6.43;5.82;;;;;;;-148.15;100.00;61821.78;4969175;28;20027;-85
2023/08/30 10:32:45;;;;;;;6.73;6.13;;;;;;;-148.15;100.00;61821.78;4968168;28;20149;-85
2023/08/30 10:35:15;;;;;;;6.57;5.83;;;;;;;-148.15;100.00;61821.78;4970405;28;20310;-86
2023/08/30 10:37:42;;;;;;;6.93;5.85;;;;;;;-148.15;100.00;61821.78;4969385;28;20045;-84
2023/08/30 10:40:08;;;;;;;7.57;6.68;;;;;;;-148.15;100.00;61821.78;4968986;28;20031;-84
2023/08/30 10:42:34;;;;;;;7.22;6.53;;;;;;;-148.15;100.00;61821.78;4970027;28;20042;-84
2023/08/30 10:45:04;;;;;;;6.57;5.97;;;;;;;-148.15;100.00;61821.78;4970222;28;20522;-84
2023/08/30 10:47:31;;;;;;;6.55;5.88;;;;;;;-148.15;100.00;61821.78;4969776;28;20084;-85
2023/08/30 10:50:04;;;;;;;7.00;6.35;;;;;;;-148.15;100.00;61821.78;4967893;28;20111;-85
2023/08/30 10:52:29;;;;;;;6.17;5.57;;;;;;;-148.15;100.00;61821.78;4965660;28;20114;-83
2023/08/30 10:55:16;;;;;;;5.72;5.25;;;;;;;-148.15;100.00;61821.78;4970359;28;20114;-86
2023/08/30 10:57:43;;;;;;;7.55;5.38;;;;;;;-148.15;100.00;61821.78;4969528;28;20228;-85
2023/08/30 11:00:13;;;;;;;4.82;4.32;;;;;;;-148.15;100.00;61821.78;4968500;28;20718;-86